Time;durP1;ratioP1;P1;durP2;ratioP2;P2;SDS_P1;SDS_P2;PMS_P1;PMS_P2;Temp;Humidity;BMP_temperature;BMP_pressure;BME280_temperature;BME280_humidity;BME280_pressure;Samples;Min_cycle;Max_cycle;Signal;HPM_P1;HPM_P2
2022/10/21 00:00:31;;;;;;;22.73;17.35;;;11.70;99.90;;;;;;5026109;28;20543;-78
2022/10/21 00:02:57;;;;;;;19.83;15.85;;;11.60;99.90;;;;;;5027095;28;20045;-78
2022/10/21 00:05:22;;;;;;;26.63;17.30;;;11.70;99.90;;;;;;5027273;28;20033;-78
2022/10/21 00:07:48;;;;;;;24.63;17.20;;;11.70;99.90;;;;;;5027520;28;20056;-78
2022/10/21 00:10:14;;;;;;;26.40;17.50;;;11.60;99.90;;;;;;5027064;28;20045;-78
2022/10/21 00:12:39;;;;;;;22.20;15.40;;;11.60;99.90;;;;;;5026888;28;20081;-78
2022/10/21 00:15:07;;;;;;;26.75;15.57;;;11.60;99.90;;;;;;5026307;28;20081;-78
2022/10/21 00:17:37;;;;;;;23.67;17.27;;;11.60;99.90;;;;;;5009154;28;20046;-78
2022/10/21 00:20:06;;;;;;;26.00;15.93;;;11.60;99.90;;;;;;5026924;28;20125;-78
2022/10/21 00:22:32;;;;;;;23.20;15.35;;;11.60;99.90;;;;;;5026882;28;20073;-78
2022/10/21 00:24:58;;;;;;;20.50;15.43;;;11.60;99.90;;;;;;5026611;28;20105;-78
2022/10/21 00:27:23;;;;;;;22.02;17.63;;;11.60;99.90;;;;;;5026934;28;20065;-78
2022/10/21 00:29:49;;;;;;;26.25;15.80;;;11.60;99.90;;;;;;5026543;28;20099;-78
2022/10/21 00:32:15;;;;;;;22.00;15.82;;;11.50;99.90;;;;;;5009723;28;20049;-78
2022/10/21 00:34:42;;;;;;;26.05;16.67;;;11.50;99.90;;;;;;5011900;28;20057;-78
2022/10/21 00:37:09;;;;;;;22.73;15.57;;;11.50;99.90;;;;;;5030120;28;20052;-78
2022/10/21 00:39:35;;;;;;;22.88;17.05;;;11.50;99.90;;;;;;5030482;28;20076;-77
2022/10/21 00:42:01;;;;;;;24.50;16.90;;;11.50;99.90;;;;;;5030014;28;20442;-78
2022/10/21 00:44:26;;;;;;;28.48;16.58;;;11.40;99.90;;;;;;5030594;28;20124;-78
2022/10/21 00:47:00;;;;;;;22.65;15.20;;;11.50;99.90;;;;;;5028883;28;20073;-78
2022/10/21 00:49:50;;;;;;;20.60;15.18;;;11.40;99.90;;;;;;5012830;28;20407;-78
2022/10/21 00:52:20;;;;;;;21.95;15.07;;;11.40;99.90;;;;;;5012918;28;20040;-78
2022/10/21 00:54:47;;;;;;;24.08;15.15;;;11.40;99.90;;;;;;5030617;28;20041;-78
2022/10/21 00:57:14;;;;;;;20.75;14.40;;;11.40;99.90;;;;;;5029571;28;20037;-78
2022/10/21 00:59:46;;;;;;;21.15;15.48;;;11.30;99.90;;;;;;5029724;28;20609;-80
2022/10/21 01:02:12;;;;;;;22.83;15.77;;;11.30;99.90;;;;;;5012038;28;20041;-77
2022/10/21 01:04:38;;;;;;;25.10;16.92;;;11.30;99.90;;;;;;5029577;28;20048;-77
2022/10/21 01:07:04;;;;;;;24.48;15.80;;;11.30;99.90;;;;;;5029910;28;20037;-77
2022/10/21 01:09:31;;;;;;;21.75;13.70;;;11.30;99.90;;;;;;4995832;28;20479;-78
2022/10/21 01:11:57;;;;;;;21.55;14.57;;;11.30;99.90;;;;;;5012222;28;20053;-77
2022/10/21 01:14:47;;;;;;;18.38;14.88;;;11.30;99.90;;;;;;5029884;28;20056;-78
2022/10/21 01:17:28;;;;;;;20.63;14.45;;;11.30;99.90;;;;;;5029596;28;20041;-78
2022/10/21 01:20:10;;;;;;;20.95;15.23;;;11.30;99.90;;;;;;5029571;28;20176;-77
2022/10/21 01:23:05;;;;;;;21.38;14.60;;;11.30;99.90;;;;;;5029691;28;20134;-78
2022/10/21 01:25:50;;;;;;;21.88;14.38;;;11.20;99.90;;;;;;4995199;28;20046;-78
2022/10/21 01:28:59;;;;;;;22.67;14.77;;;11.20;99.90;;;;;;5030061;28;20052;-78
2022/10/21 01:31:45;;;;;;;26.73;15.57;;;11.20;99.90;;;;;;5028566;28;20056;-78
2022/10/21 01:34:35;;;;;;;22.00;14.52;;;11.30;99.90;;;;;;5028834;28;20042;-78
2022/10/21 01:37:24;;;;;;;30.58;14.32;;;11.20;99.90;;;;;;5029192;28;20096;-78
2022/10/21 01:39:58;;;;;;;21.27;16.42;;;11.30;99.90;;;;;;5029222;28;20048;-80
2022/10/21 01:42:43;;;;;;;26.88;17.30;;;11.30;99.90;;;;;;5029351;28;20041;-78
2022/10/21 01:45:18;;;;;;;22.73;16.55;;;11.30;99.90;;;;;;5027757;28;20053;-78
2022/10/21 01:47:53;;;;;;;23.38;16.65;;;11.30;99.90;;;;;;5028939;28;20057;-77
2022/10/21 01:50:24;;;;;;;23.30;18.92;;;11.30;99.90;;;;;;5028989;28;20140;-78
2022/10/21 01:52:51;;;;;;;23.40;16.77;;;11.30;99.90;;;;;;5029228;28;20095;-80
2022/10/21 01:55:21;;;;;;;28.05;19.25;;;11.40;99.90;;;;;;5029419;28;20041;-78
2022/10/21 01:57:52;;;;;;;30.48;19.55;;;11.40;99.90;;;;;;5011711;28;20041;-79
2022/10/21 02:00:18;;;;;;;25.38;18.05;;;11.40;99.90;;;;;;5028561;28;20124;-78
2022/10/21 02:02:47;;;;;;;27.30;18.77;;;11.40;99.90;;;;;;5028501;28;20120;-79
2022/10/21 02:05:26;;;;;;;28.48;19.23;;;11.40;99.90;;;;;;5028658;28;20042;-78
2022/10/21 02:07:53;;;;;;;22.17;15.82;;;11.40;99.90;;;;;;5010714;28;20056;-79
2022/10/21 02:10:19;;;;;;;35.63;19.92;;;11.50;99.90;;;;;;5029266;28;20041;-78
2022/10/21 02:12:47;;;;;;;31.48;19.00;;;11.50;99.90;;;;;;5028873;28;20045;-79
2022/10/21 02:15:15;;;;;;;32.78;20.58;;;11.50;99.90;;;;;;5027524;28;20500;-78
2022/10/21 02:17:47;;;;;;;26.55;19.08;;;11.50;99.90;;;;;;5010984;28;20079;-78
2022/10/21 02:20:14;;;;;;;;;;;11.50;99.90;;;;;;5028676;28;20049;-78
2022/10/21 02:22:41;;;;;;;33.28;18.98;;;11.50;99.90;;;;;;5011018;28;19978;-78
2022/10/21 02:25:19;;;;;;;33.30;20.83;;;11.60;99.90;;;;;;5028219;28;20053;-78
2022/10/21 02:27:45;;;;;;;28.38;20.17;;;11.60;99.90;;;;;;5028441;28;20049;-79
2022/10/21 02:30:11;;;;;;;29.42;19.52;;;11.60;99.90;;;;;;5027549;28;20127;-78
2022/10/21 02:32:53;;;;;;;35.15;21.85;;;11.60;99.90;;;;;;5011030;28;20603;-78
2022/10/21 02:35:21;;;;;;;31.95;23.52;;;11.60;99.90;;;;;;5029031;28;20041;-79
2022/10/21 02:37:55;;;;;;;46.03;25.60;;;11.70;99.90;;;;;;5010645;28;20053;-78
2022/10/21 02:40:36;;;;;;;35.55;23.77;;;11.70;99.90;;;;;;5010802;28;20052;-78
2022/10/21 02:43:45;;;;;;;35.22;23.42;;;11.70;99.90;;;;;;5027890;28;20045;-78
2022/10/21 02:46:13;;;;;;;36.63;22.70;;;11.70;99.90;;;;;;4980716;28;20500;-78
2022/10/21 02:48:42;;;;;;;35.88;23.20;;;11.80;99.90;;;;;;5009907;28;20065;-78
2022/10/21 02:51:08;;;;;;;41.80;24.00;;;11.80;99.90;;;;;;5027681;28;20124;-78
2022/10/21 02:53:35;;;;;;;34.92;24.95;;;11.80;99.90;;;;;;5028192;28;20037;-78
2022/10/21 02:56:01;;;;;;;39.95;24.20;;;11.80;99.90;;;;;;5026827;28;20610;-78
2022/10/21 02:58:26;;;;;;;41.75;24.77;;;11.80;99.90;;;;;;5010411;28;20045;-78
2022/10/21 03:00:52;;;;;;;46.78;26.30;;;11.90;99.90;;;;;;5026687;28;20376;-78
2022/10/21 03:03:17;;;;;;;38.28;22.98;;;11.90;99.90;;;;;;5010588;28;20033;-78
2022/10/21 03:05:43;;;;;;;50.42;27.58;;;11.90;99.90;;;;;;5027985;28;20153;-79
2022/10/21 03:08:09;;;;;;;41.60;26.73;;;11.90;99.90;;;;;;5027362;28;20168;-78
2022/10/21 03:10:34;;;;;;;42.55;25.63;;;11.90;99.90;;;;;;5028076;28;20045;-78
2022/10/21 03:13:00;;;;;;;39.92;25.38;;;11.90;99.90;;;;;;5027424;28;20131;-78
2022/10/21 03:15:26;;;;;;;47.63;26.13;;;12.00;99.90;;;;;;4993025;28;20076;-79
2022/10/21 03:17:51;;;;;;;44.85;23.20;;;12.00;99.90;;;;;;5027172;28;20550;-78
2022/10/21 03:20:17;;;;;;;61.80;29.73;;;12.00;99.90;;;;;;5028382;28;20504;-78
2022/10/21 03:22:43;;;;;;;48.63;26.35;;;12.00;99.90;;;;;;5027513;28;20088;-78
2022/10/21 03:25:09;;;;;;;46.22;25.17;;;12.00;99.90;;;;;;5027237;28;20452;-79
2022/10/21 03:27:34;;;;;;;47.33;26.38;;;12.10;99.90;;;;;;5027578;28;20041;-79
2022/10/21 03:30:00;;;;;;;52.95;25.35;;;12.10;99.90;;;;;;5026477;28;20073;-79
2022/10/21 03:32:25;;;;;;;50.30;28.00;;;12.10;99.90;;;;;;5027500;28;20441;-79
2022/10/21 03:34:51;;;;;;;55.03;28.27;;;12.20;99.90;;;;;;5009495;28;20121;-79
2022/10/21 03:37:17;;;;;;;57.13;29.17;;;12.20;99.90;;;;;;5028103;28;20045;-79
2022/10/21 03:39:42;;;;;;;58.22;28.00;;;12.20;99.90;;;;;;5009708;28;20098;-78
2022/10/21 03:42:08;;;;;;;51.65;27.33;;;12.30;99.90;;;;;;5027125;28;20061;-79
2022/10/21 03:44:33;;;;;;;49.47;27.08;;;12.30;99.90;;;;;;5026496;28;20042;-79
2022/10/21 03:46:59;;;;;;;54.70;27.30;;;12.30;99.90;;;;;;5026536;28;20231;-79
2022/10/21 03:49:24;;;;;;;56.35;28.88;;;12.30;99.90;;;;;;5027442;28;20041;-78
2022/10/21 03:51:50;;;;;;;57.08;29.90;;;12.30;99.90;;;;;;5027063;28;20077;-79
2022/10/21 03:54:16;;;;;;;54.88;30.13;;;12.30;99.90;;;;;;5027667;28;20383;-78
2022/10/21 03:56:42;;;;;;;66.43;30.33;;;12.40;99.90;;;;;;5027259;28;20055;-79
2022/10/21 03:59:07;;;;;;;56.47;27.73;;;12.30;99.90;;;;;;5027069;28;20128;-79
2022/10/21 04:01:33;;;;;;;58.15;27.50;;;12.40;99.90;;;;;;5008874;28;20049;-79
2022/10/21 04:03:58;;;;;;;61.53;28.10;;;12.40;99.90;;;;;;5027106;28;20045;-79
2022/10/21 04:06:24;;;;;;;67.55;30.17;;;12.40;99.90;;;;;;5027448;28;20427;-79
2022/10/21 04:08:50;;;;;;;55.50;27.13;;;12.40;99.90;;;;;;5012412;28;20033;-80
2022/10/21 04:11:15;;;;;;;58.15;28.80;;;12.40;99.90;;;;;;5031266;28;20053;-79
2022/10/21 04:13:41;;;;;;;52.15;25.80;;;12.40;99.90;;;;;;5030939;28;20495;-79
2022/10/21 04:16:09;;;;;;;56.83;26.45;;;12.40;99.90;;;;;;5012155;28;20103;-79
2022/10/21 04:18:34;;;;;;;54.53;27.45;;;12.40;99.90;;;;;;5030898;28;20037;-78
2022/10/21 04:21:00;;;;;;;56.88;27.58;;;12.40;99.90;;;;;;5012916;28;20072;-79
2022/10/21 04:23:25;;;;;;;61.40;28.13;;;12.40;99.90;;;;;;5012937;28;20047;-79
2022/10/21 04:25:51;;;;;;;56.50;27.42;;;12.40;99.90;;;;;;5030434;28;20037;-79
2022/10/21 04:28:17;;;;;;;54.60;25.63;;;12.40;99.90;;;;;;5031069;28;20049;-79
2022/10/21 04:30:42;;;;;;;55.28;25.25;;;12.50;99.90;;;;;;5012007;28;20044;-78
2022/10/21 04:33:08;;;;;;;57.15;28.73;;;12.50;99.90;;;;;;5030423;28;20045;-79
2022/10/21 04:35:33;;;;;;;61.67;28.10;;;12.50;99.90;;;;;;4996424;28;20480;-78
2022/10/21 04:37:59;;;;;;;61.88;28.40;;;12.50;99.90;;;;;;5030350;28;20044;-79
2022/10/21 04:40:25;;;;;;;56.20;29.50;;;12.50;99.90;;;;;;5030418;28;20048;-78
2022/10/21 04:42:51;;;;;;;70.55;28.75;;;12.50;99.90;;;;;;5029958;28;20053;-79
2022/10/21 04:45:17;;;;;;;65.75;29.15;;;12.50;99.90;;;;;;5011995;28;20045;-79
2022/10/21 04:47:43;;;;;;;69.25;31.05;;;12.50;99.90;;;;;;5030029;28;20053;-79
2022/10/21 04:50:09;;;;;;;61.05;28.00;;;12.50;99.90;;;;;;5012442;28;20479;-79
2022/10/21 04:52:34;;;;;;;64.15;27.25;;;12.60;99.90;;;;;;5030499;28;20049;-79
2022/10/21 04:55:00;;;;;;;67.35;30.92;;;12.60;99.90;;;;;;5029743;28;20490;-79
2022/10/21 04:57:25;;;;;;;63.55;26.98;;;12.60;99.90;;;;;;5030203;28;20397;-79
2022/10/21 04:59:51;;;;;;;61.65;29.95;;;12.60;99.90;;;;;;5011031;28;20091;-79
2022/10/21 05:02:17;;;;;;;63.42;29.73;;;12.60;99.90;;;;;;5030769;28;20050;-78
2022/10/21 05:04:42;;;;;;;66.25;28.52;;;12.60;99.90;;;;;;5012339;28;20041;-78
2022/10/21 05:07:08;;;;;;;66.97;30.30;;;12.50;99.90;;;;;;5029748;28;20447;-78
2022/10/21 05:09:34;;;;;;;58.30;28.58;;;12.50;99.90;;;;;;5012235;28;20436;-79
2022/10/21 05:11:59;;;;;;;60.00;27.40;;;12.50;99.90;;;;;;5029563;28;20041;-79
2022/10/21 05:14:25;;;;;;;64.95;26.38;;;12.50;99.90;;;;;;5028811;28;20117;-78
2022/10/21 05:16:50;;;;;;;57.92;27.83;;;12.50;99.90;;;;;;5029737;28;20052;-79
2022/10/21 05:19:16;;;;;;;63.80;27.65;;;12.50;99.90;;;;;;5011562;28;20048;-78
2022/10/21 05:21:42;;;;;;;59.78;27.92;;;12.50;99.90;;;;;;5029878;28;20037;-79
2022/10/21 05:24:07;;;;;;;57.95;27.05;;;12.50;99.90;;;;;;5029512;28;20135;-79
2022/10/21 05:26:33;;;;;;;54.80;26.67;;;12.50;99.90;;;;;;5029333;28;20491;-79
2022/10/21 05:28:58;;;;;;;63.13;25.83;;;12.50;99.90;;;;;;5028465;28;20037;-79
2022/10/21 05:31:24;;;;;;;51.95;26.63;;;12.50;99.90;;;;;;5029668;28;20052;-79
2022/10/21 05:33:50;;;;;;;65.22;26.05;;;12.40;99.90;;;;;;5029042;28;20041;-80
2022/10/21 05:36:16;;;;;;;58.85;28.25;;;12.40;99.90;;;;;;5029902;28;20168;-78
2022/10/21 05:38:41;;;;;;;60.45;27.65;;;12.40;99.90;;;;;;5029459;28;20435;-79
2022/10/21 05:41:09;;;;;;;50.75;25.27;;;12.40;99.90;;;;;;5028958;28;20053;-79
2022/10/21 05:43:35;;;;;;;63.35;26.55;;;12.40;99.90;;;;;;5029222;28;20038;-79
2022/10/21 05:46:01;;;;;;;45.50;25.10;;;12.30;99.90;;;;;;5027938;28;20041;-79
2022/10/21 05:48:27;;;;;;;51.72;24.98;;;12.30;99.90;;;;;;5007934;28;20056;-79
2022/10/21 05:50:54;;;;;;;50.55;23.08;;;12.30;99.90;;;;;;5009131;28;20038;-79
2022/10/21 05:53:23;;;;;;;46.05;24.33;;;12.30;99.90;;;;;;5009398;28;20455;-80
2022/10/21 05:55:57;;;;;;;42.22;23.52;;;12.20;99.90;;;;;;5009040;28;20161;-79
2022/10/21 05:58:24;;;;;;;44.95;24.08;;;12.20;99.90;;;;;;5009223;28;20056;-79
2022/10/21 06:00:53;;;;;;;34.85;21.67;;;12.20;99.90;;;;;;5008287;28;20125;-81
2022/10/21 06:03:29;;;;;;;72.97;31.98;;;12.20;99.90;;;;;;5009543;28;20072;-78
2022/10/21 06:05:59;;;;;;;32.78;20.50;;;12.10;99.90;;;;;;5008831;28;20088;-79
2022/10/21 06:08:26;;;;;;;30.55;18.60;;;12.10;99.90;;;;;;5008856;28;20492;-79
2022/10/21 06:11:06;;;;;;;35.97;21.27;;;12.00;99.90;;;;;;5007291;28;20046;-79
2022/10/21 06:13:32;;;;;;;37.25;19.95;;;12.00;99.90;;;;;;5009127;28;20046;-78
2022/10/21 06:15:58;;;;;;;29.77;19.92;;;12.00;99.90;;;;;;5007819;28;20042;-78
2022/10/21 06:18:25;;;;;;;34.90;19.05;;;11.90;99.90;;;;;;5007685;28;20046;-79
2022/10/21 06:20:50;;;;;;;37.53;18.77;;;11.90;99.90;;;;;;5008458;28;20038;-80
2022/10/21 06:23:17;;;;;;;32.05;19.90;;;11.90;99.90;;;;;;5009068;28;20046;-79
2022/10/21 06:25:52;;;;;;;30.77;19.67;;;11.90;99.90;;;;;;5008295;28;20467;-79
2022/10/21 06:28:18;;;;;;;34.35;21.33;;;11.90;99.90;;;;;;4991443;28;20081;-78
2022/10/21 06:30:44;;;;;;;34.38;20.83;;;11.90;99.90;;;;;;5007673;28;20500;-79
2022/10/21 06:33:09;;;;;;;36.90;21.17;;;11.90;99.90;;;;;;5008406;28;20408;-79
2022/10/21 06:35:35;;;;;;;43.13;23.42;;;11.90;99.90;;;;;;5007322;28;20066;-78
2022/10/21 06:38:00;;;;;;;33.08;22.45;;;11.90;99.90;;;;;;5008055;28;20568;-79
2022/10/21 06:40:26;;;;;;;39.88;23.58;;;11.90;99.90;;;;;;5008662;28;20096;-79
2022/10/21 06:42:51;;;;;;;40.60;24.35;;;12.00;99.90;;;;;;5006803;28;20536;-78
2022/10/21 06:45:17;;;;;;;37.13;22.33;;;11.90;99.90;;;;;;5008089;28;20395;-78
2022/10/21 06:47:42;;;;;;;37.58;23.88;;;11.90;99.90;;;;;;5019573;28;20065;-78
2022/10/21 06:50:08;;;;;;;40.92;23.77;;;12.00;99.90;;;;;;5027695;28;20088;-78
2022/10/21 06:52:34;;;;;;;41.15;23.85;;;12.00;99.90;;;;;;5027980;28;20476;-78
2022/10/21 06:54:59;;;;;;;47.85;25.10;;;12.00;99.90;;;;;;5027778;28;20052;-78
2022/10/21 06:57:26;;;;;;;41.55;24.15;;;12.00;99.90;;;;;;5028103;28;20746;-78
2022/10/21 06:59:52;;;;;;;41.47;24.70;;;12.00;99.90;;;;;;5026785;28;20042;-79
2022/10/21 07:02:17;;;;;;;46.20;25.45;;;12.10;99.90;;;;;;5028265;28;20057;-78
2022/10/21 07:04:44;;;;;;;44.92;25.08;;;12.00;99.90;;;;;;5027955;28;20392;-78
2022/10/21 07:07:11;;;;;;;37.42;24.42;;;12.00;99.90;;;;;;5026999;28;20103;-78
2022/10/21 07:09:36;;;;;;;47.67;28.55;;;12.10;99.90;;;;;;5010067;28;20139;-78
2022/10/21 07:12:02;;;;;;;47.85;25.45;;;12.10;99.90;;;;;;5027442;28;20050;-78
2022/10/21 07:14:28;;;;;;;45.83;27.25;;;12.10;99.90;;;;;;5026898;28;20120;-79
2022/10/21 07:16:54;;;;;;;47.35;26.05;;;12.20;99.90;;;;;;5009847;28;20428;-78
2022/10/21 07:19:19;;;;;;;46.42;24.88;;;12.20;99.90;;;;;;5027997;28;20067;-79
2022/10/21 07:21:45;;;;;;;51.35;27.55;;;12.20;99.90;;;;;;5027649;28;20045;-78
2022/10/21 07:24:11;;;;;;;43.80;24.75;;;12.20;99.90;;;;;;5027571;28;20080;-78
2022/10/21 07:26:37;;;;;;;52.00;29.40;;;12.20;99.90;;;;;;5009330;28;20037;-79
2022/10/21 07:29:03;;;;;;;53.83;27.38;;;12.20;99.90;;;;;;5024885;28;20041;-78
2022/10/21 07:31:32;;;;;;;54.17;26.20;;;12.20;99.90;;;;;;5016371;28;20080;-78
2022/10/21 07:34:00;;;;;;;45.45;28.27;;;12.30;99.90;;;;;;5014491;28;20042;-80
2022/10/21 07:36:28;;;;;;;50.67;26.40;;;12.30;99.90;;;;;;5025543;28;20522;-80
2022/10/21 07:38:57;;;;;;;50.00;26.77;;;12.30;99.90;;;;;;5025731;28;20053;-79
2022/10/21 07:41:26;;;;;;;51.70;29.23;;;12.30;99.90;;;;;;5001120;28;20050;-79
2022/10/21 07:43:52;;;;;;;44.47;27.02;;;12.30;99.90;;;;;;5018129;28;20076;-79
2022/10/21 07:46:20;;;;;;;50.15;26.25;;;12.40;99.90;;;;;;5028473;28;20102;-80
2022/10/21 07:48:45;;;;;;;46.85;26.58;;;12.40;99.90;;;;;;5032060;28;20045;-79
2022/10/21 07:51:14;;;;;;;44.00;27.25;;;12.40;99.90;;;;;;5026994;28;20128;-80
2022/10/21 07:53:41;;;;;;;49.78;26.90;;;12.40;99.90;;;;;;5025886;28;20052;-79
2022/10/21 07:56:19;;;;;;;47.45;24.33;;;12.40;99.90;;;;;;5027131;28;20076;-78
2022/10/21 07:58:47;;;;;;;45.83;26.58;;;12.50;99.90;;;;;;4995240;28;20045;-80
2022/10/21 08:01:14;;;;;;;45.05;25.40;;;12.50;99.90;;;;;;5020499;28;20399;-80
2022/10/21 08:03:40;;;;;;;51.95;28.58;;;12.50;99.90;;;;;;5024343;28;20112;-80
2022/10/21 08:06:07;;;;;;;51.15;28.50;;;12.50;99.90;;;;;;5025581;28;20053;-79
2022/10/21 08:08:34;;;;;;;59.85;28.30;;;12.60;99.90;;;;;;5016677;28;20045;-80
2022/10/21 08:11:03;;;;;;;48.75;26.45;;;12.60;99.90;;;;;;5014262;28;20499;-82
2022/10/21 08:13:30;;;;;;;53.80;28.48;;;12.50;99.90;;;;;;5021208;28;20049;-84
2022/10/21 08:15:57;;;;;;;50.70;29.13;;;12.60;99.90;;;;;;5019832;28;20051;-79
2022/10/21 08:18:24;;;;;;;48.10;28.02;;;12.60;99.90;;;;;;5026412;28;20405;-79
2022/10/21 08:20:50;;;;;;;46.65;26.88;;;12.60;99.90;;;;;;5028627;28;20056;-80
2022/10/21 08:23:18;;;;;;;55.75;26.33;;;12.60;99.90;;;;;;5030199;28;20038;-86
2022/10/21 08:25:59;;;;;;;45.58;26.17;;;12.60;99.90;;;;;;5025839;28;20096;-87
2022/10/21 08:28:27;;;;;;;41.70;25.25;;;12.70;99.90;;;;;;5009144;28;20041;-82
2022/10/21 08:31:01;;;;;;;55.65;27.90;;;12.70;99.90;;;;;;5021613;28;20049;-83
2022/10/21 08:33:28;;;;;;;57.65;25.95;;;12.70;99.90;;;;;;4998042;28;20045;-84
2022/10/21 08:35:54;;;;;;;56.22;27.60;;;12.70;99.90;;;;;;5020298;28;20052;-83
2022/10/21 08:38:20;;;;;;;52.92;27.30;;;12.80;99.90;;;;;;5016980;28;20121;-84
2022/10/21 08:40:47;;;;;;;52.67;27.42;;;12.80;99.90;;;;;;5023408;28;20044;-83
2022/10/21 08:43:23;;;;;;;49.33;28.42;;;12.80;99.90;;;;;;5028203;28;20091;-83
2022/10/21 08:46:03;;;;;;;51.78;27.42;;;12.90;99.90;;;;;;5006150;28;20054;-83
2022/10/21 08:48:59;;;;;;;50.97;27.98;;;12.90;99.90;;;;;;5020631;28;20107;-81
2022/10/21 08:51:40;;;;;;;53.67;27.55;;;12.90;99.90;;;;;;5016020;28;20065;-77
2022/10/21 08:54:14;;;;;;;59.80;26.15;;;13.00;99.90;;;;;;4996016;28;20506;-78
2022/10/21 08:56:40;;;;;;;54.13;27.88;;;13.00;99.90;;;;;;5004603;28;20049;-78
2022/10/21 08:59:20;;;;;;;55.63;30.25;;;13.00;99.90;;;;;;5020870;28;20042;-78
2022/10/21 09:02:11;;;;;;;55.97;30.23;;;13.10;99.90;;;;;;4989563;28;20045;-78
2022/10/21 09:05:06;;;;;;;61.33;30.02;;;13.10;99.90;;;;;;4968259;28;20440;-78
2022/10/21 09:07:53;;;;;;;60.47;29.45;;;13.20;99.90;;;;;;5001122;28;20077;-79
2022/10/21 09:10:46;;;;;;;59.75;29.33;;;13.20;99.90;;;;;;4998200;28;20049;-78
2022/10/21 09:13:47;;;;;;;60.33;26.95;;;13.20;99.90;;;;;;5030120;28;20048;-79
2022/10/21 09:16:23;;;;;;;55.30;27.13;;;13.30;99.90;;;;;;4999646;28;20045;-78
2022/10/21 09:19:22;;;;;;;57.88;28.63;;;13.30;99.90;;;;;;4997933;28;20113;-80
2022/10/21 09:22:01;;;;;;;49.47;26.00;;;13.30;99.90;;;;;;5005083;28;20049;-76
2022/10/21 09:24:40;;;;;;;56.90;26.85;;;13.40;99.90;;;;;;5021206;28;20447;-78
2022/10/21 09:27:08;;;;;;;48.05;23.20;;;13.40;99.90;;;;;;5021160;28;20081;-78
2022/10/21 09:29:41;;;;;;;48.28;26.25;;;13.40;99.90;;;;;;5024059;28;20034;-78
2022/10/21 09:32:20;;;;;;;47.10;23.42;;;13.40;99.90;;;;;;5029774;28;20045;-78
2022/10/21 09:34:49;;;;;;;55.42;25.67;;;13.40;99.90;;;;;;5021893;28;20507;-78
2022/10/21 09:37:29;;;;;;;44.83;24.10;;;13.50;99.90;;;;;;5003411;28;20550;-77
2022/10/21 09:40:02;;;;;;;55.17;23.13;;;13.50;99.90;;;;;;5002647;28;20045;-77
2022/10/21 09:42:27;;;;;;;47.22;24.38;;;13.50;99.90;;;;;;5006137;28;20073;-77
2022/10/21 09:44:53;;;;;;;51.90;22.33;;;13.50;99.90;;;;;;5013512;28;20135;-78
2022/10/21 09:47:47;;;;;;;44.42;23.83;;;13.60;99.90;;;;;;5026262;28;20415;-83
2022/10/21 09:50:16;;;;;;;42.10;20.20;;;13.60;99.90;;;;;;4968945;28;20573;-85
2022/10/21 09:52:47;;;;;;;38.22;21.55;;;13.60;99.90;;;;;;4982665;28;20041;-86
2022/10/21 09:55:14;;;;;;;46.25;21.95;;;13.60;99.90;;;;;;5001724;28;20092;-84
2022/10/21 09:57:50;;;;;;;44.65;21.02;;;13.60;99.90;;;;;;5020722;28;20041;-87
2022/10/21 10:00:41;;;;;;;43.33;22.05;;;13.60;99.90;;;;;;4999403;28;20148;-85
2022/10/21 10:03:10;;;;;;;47.85;21.58;;;13.70;99.90;;;;;;5001025;28;20050;-86
2022/10/21 10:05:46;;;;;;;47.88;23.45;;;13.70;99.90;;;;;;5001736;28;20069;-86
2022/10/21 10:08:36;;;;;;;44.80;21.60;;;13.70;99.90;;;;;;5003140;28;20038;-87
2022/10/21 10:11:09;;;;;;;51.00;22.10;;;13.70;99.90;;;;;;5001593;28;20038;-84
2022/10/21 10:13:37;;;;;;;45.92;20.08;;;13.80;99.90;;;;;;4994661;28;20053;-81
2022/10/21 10:16:26;;;;;;;37.40;20.73;;;13.70;99.90;;;;;;4994606;28;20519;-84
2022/10/21 10:19:08;;;;;;;30.65;19.55;;;13.80;99.90;;;;;;5003088;28;20038;-83
2022/10/21 10:21:34;;;;;;;40.97;18.85;;;13.80;99.90;;;;;;5001311;28;20045;-81
2022/10/21 10:24:01;;;;;;;35.38;19.40;;;13.90;99.90;;;;;;5001524;28;20041;-86
2022/10/21 10:26:32;;;;;;;41.03;19.30;;;13.90;99.90;;;;;;5004052;28;20045;-86
2022/10/21 10:29:14;;;;;;;36.35;18.88;;;13.90;99.90;;;;;;5001220;28;20049;-82
2022/10/21 10:31:46;;;;;;;25.90;16.30;;;13.90;99.90;;;;;;4984428;28;20692;-83
2022/10/21 10:34:41;;;;;;;;;;;13.90;99.90;;;;;;5004034;28;20042;-81
2022/10/21 10:37:16;;;;;;;33.65;17.33;;;14.00;99.90;;;;;;4984144;28;19925;-84
2022/10/21 10:39:45;;;;;;;28.35;16.73;;;14.00;99.90;;;;;;5008002;28;20112;-81
2022/10/21 10:42:17;;;;;;;33.25;17.50;;;13.90;99.90;;;;;;4990926;28;20448;-81
2022/10/21 10:44:43;;;;;;;31.65;17.45;;;14.00;99.90;;;;;;5003705;28;20042;-80
2022/10/21 10:47:28;;;;;;;38.47;17.45;;;14.10;99.90;;;;;;4990859;28;20053;-80
2022/10/21 10:49:54;;;;;;;30.73;17.58;;;14.00;99.90;;;;;;5000251;28;20081;-81
2022/10/21 10:52:23;;;;;;;33.65;18.08;;;14.10;99.90;;;;;;4990062;28;20045;-81
2022/10/21 10:55:11;;;;;;;31.88;17.60;;;14.10;99.90;;;;;;5009650;28;20400;-81
2022/10/21 10:57:43;;;;;;;32.45;17.23;;;14.10;99.90;;;;;;5008857;28;20401;-80
2022/10/21 11:00:22;;;;;;;35.20;17.50;;;14.10;99.90;;;;;;5007589;28;20045;-80
2022/10/21 11:03:08;;;;;;;28.17;16.65;;;14.10;99.90;;;;;;4986209;28;20053;-81
2022/10/21 11:05:35;;;;;;;28.58;16.20;;;14.20;99.90;;;;;;4993360;28;20042;-81
2022/10/21 11:08:05;;;;;;;27.30;16.60;;;14.20;99.90;;;;;;4983183;28;20527;-80
2022/10/21 11:10:43;;;;;;;26.77;16.55;;;14.20;99.90;;;;;;4977660;28;20034;-81
2022/10/21 11:13:13;;;;;;;18.90;13.88;;;14.20;99.90;;;;;;4993809;28;20057;-84
2022/10/21 11:16:09;;;;;;;23.92;14.65;;;14.20;99.90;;;;;;4994673;28;20048;-81
2022/10/21 11:18:58;;;;;;;23.95;14.35;;;14.20;99.90;;;;;;4998750;28;20057;-85
2022/10/21 11:21:52;;;;;;;21.98;15.43;;;14.20;99.90;;;;;;5000212;28;20105;-86
2022/10/21 11:24:49;;;;;;;28.40;15.00;;;14.30;99.90;;;;;;4983166;28;20453;-83
2022/10/21 11:27:30;;;;;;;25.05;15.52;;;14.30;99.90;;;;;;4999263;28;20775;-80
2022/10/21 11:30:13;;;;;;;30.65;14.35;;;14.30;99.90;;;;;;5003039;28;20501;-82
2022/10/21 11:32:47;;;;;;;21.67;13.50;;;14.40;99.90;;;;;;5002398;28;20049;-84
2022/10/21 11:35:38;;;;;;;25.52;13.30;;;14.40;99.90;;;;;;5000650;28;20092;-84
2022/10/21 11:38:16;;;;;;;26.10;12.32;;;14.50;99.90;;;;;;5006590;28;20460;-82
2022/10/21 11:40:48;;;;;;;19.77;12.63;;;14.50;99.90;;;;;;4997085;28;20042;-82
2022/10/21 11:43:22;;;;;;;23.05;12.30;;;14.50;99.90;;;;;;4989808;28;20523;-82
2022/10/21 11:45:56;;;;;;;20.77;12.38;;;14.60;99.90;;;;;;4994257;28;20038;-82
2022/10/21 11:48:40;;;;;;;20.20;11.38;;;14.60;99.90;;;;;;4975770;28;20058;-82
2022/10/21 11:51:14;;;;;;;17.95;11.43;;;14.50;99.90;;;;;;4987876;28;20057;-82
2022/10/21 11:54:21;;;;;;;17.98;11.38;;;14.60;99.90;;;;;;4991599;28;20091;-82
2022/10/21 11:56:56;;;;;;;17.60;11.65;;;14.60;99.90;;;;;;4987504;28;20129;-82
2022/10/21 11:59:34;;;;;;;16.50;10.35;;;14.60;99.90;;;;;;4968162;28;20050;-83
2022/10/21 12:02:26;;;;;;;12.32;9.15;;;14.60;99.90;;;;;;5007568;28;20046;-82
2022/10/21 12:04:52;;;;;;;;;;;14.70;99.90;;;;;;4971917;28;20085;-83
2022/10/21 12:07:35;;;;;;;12.50;9.68;;;14.70;99.90;;;;;;4998079;28;19981;-82
2022/10/21 12:10:26;;;;;;;14.77;9.50;;;14.70;99.90;;;;;;4992041;28;20066;-82
2022/10/21 12:12:54;;;;;;;13.07;8.48;;;14.70;99.90;;;;;;4980148;28;20548;-83
2022/10/21 12:15:26;;;;;;;16.38;8.75;;;14.70;99.90;;;;;;4998586;28;20125;-83
2022/10/21 12:17:52;;;;;;;12.60;9.27;;;14.80;99.90;;;;;;4996427;28;20065;-83
2022/10/21 12:20:25;;;;;;;16.10;9.55;;;14.80;99.90;;;;;;5001160;28;20049;-82
2022/10/21 12:22:58;;;;;;;12.90;8.65;;;14.80;99.90;;;;;;4992751;28;20065;-83
2022/10/21 12:26:08;;;;;;;14.98;10.30;;;14.80;99.90;;;;;;4980924;28;20100;-82
2022/10/21 12:28:52;;;;;;;15.23;8.50;;;14.90;99.90;;;;;;5006907;28;20086;-82
2022/10/21 12:31:44;;;;;;;19.25;9.48;;;14.90;99.90;;;;;;5008198;28;20104;-82
2022/10/21 12:34:11;;;;;;;14.95;9.68;;;14.90;99.90;;;;;;5001194;28;20060;-82
2022/10/21 12:36:49;;;;;;;12.35;8.90;;;14.90;99.90;;;;;;5005907;28;20092;-82
2022/10/21 12:39:33;;;;;;;11.15;7.90;;;15.00;99.90;;;;;;4999372;28;20519;-82
2022/10/21 12:42:12;;;;;;;14.15;8.88;;;15.10;99.90;;;;;;5003138;28;20073;-82
2022/10/21 12:44:43;;;;;;;13.75;9.13;;;15.10;99.90;;;;;;4999521;28;20050;-82
2022/10/21 12:47:29;;;;;;;12.90;8.23;;;15.20;99.90;;;;;;5001245;28;20113;-82
2022/10/21 12:50:04;;;;;;;15.77;9.20;;;15.30;99.90;;;;;;4984506;28;20081;-82